LIPHEBCI

Guest
Details From LIPH - Treviso
To EBCI - Brussels South - Charleroi
Flight Number -
Tags Generated
Created
Modified
Stats Distance 424 nm / 785 km
Max Altitude 0 ft / 0 m
Waypoints 3
Social Downloads 2
Likes 0
Share VATSIM

Download

Looking for another format? Having issues loading an existing format? Contact us
Advertisement - Login to hide

Notes

Generated

Route

LIPH BFS99 EBCI

ID Type Via Altitude Latitude Longitude Leg Dist Tot Dist Heading (true) Name
O LIPH APT - 0 ft / 0 m 45.64464˚ 12.17963˚ - 0 nm - -
BFS99 FIX - 0 ft / 0 m 50.19800˚ 4.90377˚ 400 nm 400 nm 316° / 310° -
O EBCI APT - 0 ft / 0 m 50.45539˚ 4.43664˚ 23 nm 423 nm 311° / 311° -

Altitude Profile

Advertisement - Login to hide

Weather


0- 5 10 15 20 25 30 35+ Temperature / ° C

Clouds and Precipitation
Forecast for 2018-05-20 18:00 UTC. Updated an hour ago

Ground ~20,000 ft ~40,000 ft Winds

LIPH

Details ICAO LIPH (TSF)
Name TREVISO
Region Italy
Timezone Europe/Rome (UTC+2.0)
Stats Elevation 59 ft / 18 m (AMSL)
Location 45.648499° 12.194136°
Runways 1
Magnetic Variation 3.201° E

METAR

LIPH 201550Z 10006KT 040V150 9999 FEW040 25/12 Q1014

Decode

TAF

TAF LIPH 201100Z 2012/2112 06010KT 9999 FEW040 PROB40 TEMPO 2013/2018 TSRA

Decode

Departure Runways

ID Width Length Bearing (true) Bearing (mag) Surface Threshold Offset Overrun Length
07 144 ft / 44 m 7,919 ft / 2,414 m 69.18° 65.98° Asphalt 254 ft / 77 m 975 ft / 297 m
25 144 ft / 44 m 7,919 ft / 2,414 m 249.20° 246.00° Asphalt 389 ft / 119 m 0 ft / 0 m

EBCI

Details ICAO EBCI (CRL)
Name Brussels South - Charleroi
Region Belgium
Timezone Europe/Brussels (UTC+2.0)
Stats Elevation 614 ft / 187 m (AMSL)
Location 50.459947° 4.453125°
Runways 1
Magnetic Variation 1.192° E

METAR

EBCI 201550Z 04011KT 350V070 9999 FEW040CB 22/09 Q1018 TEMPO 3000 TSRA

Decode

TAF

TAF EBCI 201120Z 2012/2118 08006KT 9999 FEW040 TEMPO 2018/2021 VRB15G25KT 3500 SHRA TSRA PROB40 TEMPO 2101/2105 4500 SHRA TEMPO 2102/2107 3000 BR PROB30 TEMPO 2104/2107 1200 BCFG PROB30 TEMPO 2115/2121 VRB15G25KT 4500 SHRA TSRA

Decode

Destination Runways

ID Width Length Bearing (true) Bearing (mag) Surface Threshold Offset Overrun Length
07 148 ft / 45 m 8,374 ft / 2,552 m 65.53° 64.34° Asphalt 1,476 ft / 450 m 0 ft / 0 m
25 148 ft / 45 m 8,374 ft / 2,552 m 245.55° 244.36° Asphalt 0 ft / 0 m 0 ft / 0 m

Approach Navaids

Runway Type Ident Frequency Range Bearing (true) Bearing (mag) Slope Elevation
25 Localiser IGC 110.90 MHz 18 nm / 33 km 245.54° 244.35° - 614 ft / 187 m (AMSL)
25 Glidescope IGC 110.90 MHz 10 nm / 19 km 245.54° 244.35° 3.00° 614 ft / 187 m (AMSL)

Popular Alternatives